Time;durP1;ratioP1;P1;durP2;ratioP2;P2;SDS_P1;SDS_P2;PMS_P1;PMS_P2;Temp;Humidity;BMP_temperature;BMP_pressure;BME280_temperature;BME280_humidity;BME280_pressure;Samples;Min_cycle;Max_cycle;Signal;HPM_P1;HPM_P2
2022/08/17 00:01:55;;;;;;;17.70;11.30;;;21.60;67.70;;;;;;4991751;28;20057;-80
2022/08/17 00:04:21;;;;;;;9.70;8.73;;;21.40;70.20;;;;;;5009269;28;20112;-80
2022/08/17 00:06:47;;;;;;;10.93;8.45;;;21.40;67.90;;;;;;4993082;28;20048;-80
2022/08/17 00:09:12;;;;;;;10.48;8.40;;;21.30;70.70;;;;;;5007920;28;20034;-80
2022/08/17 00:11:39;;;;;;;13.48;8.05;;;21.40;73.80;;;;;;5005938;28;20445;-80
2022/08/17 00:14:17;;;;;;;8.75;7.85;;;21.40;70.80;;;;;;5005968;28;20064;-80
2022/08/17 00:16:52;;;;;;;10.60;7.68;;;21.30;65.70;;;;;;4995646;28;20392;-81
2022/08/17 00:19:21;;;;;;;10.10;7.77;;;21.30;66.00;;;;;;4992348;28;20136;-80
2022/08/17 00:21:48;;;;;;;10.30;7.95;;;21.30;66.90;;;;;;4990390;28;20381;-80
2022/08/17 00:24:13;;;;;;;7.18;5.95;;;21.30;64.50;;;;;;4990440;28;20440;-80
2022/08/17 00:26:40;;;;;;;6.40;5.82;;;21.40;63.00;;;;;;4991399;28;20056;-79
2022/08/17 00:29:06;;;;;;;7.13;6.43;;;21.40;62.90;;;;;;5004290;28;20033;-80
2022/08/17 00:31:32;;;;;;;7.63;6.35;;;21.40;62.90;;;;;;5005375;28;20401;-80
2022/08/17 00:33:58;;;;;;;11.02;8.65;;;21.40;63.40;;;;;;5002788;28;20029;-80
2022/08/17 00:36:23;;;;;;;14.43;10.15;;;21.30;62.70;;;;;;4998243;28;20040;-80
2022/08/17 00:38:49;;;;;;;11.18;9.98;;;21.30;63.10;;;;;;4989166;28;20033;-80
2022/08/17 00:41:17;;;;;;;13.90;9.73;;;21.10;68.50;;;;;;5007495;28;20018;-80
2022/08/17 00:43:59;;;;;;;13.55;10.60;;;20.90;68.40;;;;;;5003202;28;20406;-82
2022/08/17 00:46:27;;;;;;;16.83;9.45;;;20.90;67.60;;;;;;4991896;28;20030;-80
2022/08/17 00:48:52;;;;;;;13.50;9.98;;;20.80;71.60;;;;;;5001339;28;20038;-80
2022/08/17 00:51:41;;;;;;;12.98;11.55;;;20.90;71.20;;;;;;5001773;28;20397;-80
2022/08/17 00:54:06;;;;;;;12.30;10.43;;;20.90;70.70;;;;;;5001914;28;20034;-80
2022/08/17 00:56:35;;;;;;;16.55;10.57;;;20.80;70.10;;;;;;5015199;28;20038;-80
2022/08/17 00:59:02;;;;;;;14.23;10.93;;;20.70;70.60;;;;;;4987527;28;20030;-80
2022/08/17 01:01:28;;;;;;;13.20;10.38;;;20.70;76.30;;;;;;5001339;28;20468;-80
2022/08/17 01:03:53;;;;;;;16.60;9.85;;;20.70;77.30;;;;;;5006953;28;20053;-80
2022/08/17 01:06:20;;;;;;;12.57;9.93;;;20.70;74.10;;;;;;5001017;28;20558;-80
2022/08/17 01:08:45;;;;;;;11.90;9.57;;;20.60;74.20;;;;;;5001058;28;20073;-80
2022/08/17 01:11:11;;;;;;;7.45;6.63;;;20.60;77.20;;;;;;5000938;28;20068;-80
2022/08/17 01:13:39;;;;;;;10.60;7.15;;;20.70;68.40;;;;;;5003902;28;20079;-80
2022/08/17 01:16:10;;;;;;;12.32;9.23;;;20.70;66.10;;;;;;4990460;28;20037;-80
2022/08/17 01:18:36;;;;;;;9.35;6.47;;;20.80;65.60;;;;;;5017644;28;20026;-80
2022/08/17 01:21:09;;;;;;;10.98;9.00;;;20.90;66.70;;;;;;4986714;28;20053;-80
2022/08/17 01:23:34;;;;;;;9.30;8.18;;;20.80;65.20;;;;;;5004821;28;20026;-80
2022/08/17 01:26:04;;;;;;;18.20;10.60;;;20.70;65.40;;;;;;5004776;28;20370;-79
2022/08/17 01:28:30;;;;;;;16.73;12.32;;;20.70;65.00;;;;;;4979101;28;20405;-80
2022/08/17 01:30:56;;;;;;;14.45;11.68;;;20.60;67.80;;;;;;5005210;28;20093;-80
2022/08/17 01:33:22;;;;;;;12.40;10.50;;;20.40;69.50;;;;;;5002198;28;20524;-80
2022/08/17 01:35:47;;;;;;;14.38;11.13;;;20.40;67.60;;;;;;5007386;28;20030;-80
2022/08/17 01:38:13;;;;;;;15.10;11.38;;;20.30;70.90;;;;;;5003552;28;20037;-80
2022/08/17 01:40:45;;;;;;;13.93;10.82;;;20.30;69.00;;;;;;4987397;28;20435;-80
2022/08/17 01:43:17;;;;;;;16.60;11.20;;;20.10;70.60;;;;;;5001973;28;20021;-80
2022/08/17 01:45:46;;;;;;;8.45;7.65;;;20.00;77.10;;;;;;4988490;28;20075;-80
2022/08/17 01:48:12;;;;;;;17.02;9.65;;;20.20;68.60;;;;;;5002068;28;20511;-80
2022/08/17 01:50:40;;;;;;;14.32;10.60;;;20.30;68.90;;;;;;4987961;28;20030;-78
2022/08/17 01:53:10;;;;;;;18.90;11.85;;;20.20;69.00;;;;;;4987015;28;20045;-78
2022/08/17 01:55:42;;;;;;;21.55;11.25;;;20.00;70.50;;;;;;5000382;28;20041;-78
2022/08/17 01:58:08;;;;;;;13.10;11.55;;;19.90;71.60;;;;;;4991040;28;20400;-78
2022/08/17 02:00:36;;;;;;;12.52;11.30;;;19.70;78.60;;;;;;4989324;28;20500;-79
2022/08/17 02:03:01;;;;;;;14.95;11.57;;;19.70;75.30;;;;;;4998425;28;20430;-78
2022/08/17 02:05:27;;;;;;;15.07;11.63;;;19.60;76.60;;;;;;5001174;28;20029;-78
2022/08/17 02:07:52;;;;;;;14.38;12.00;;;19.50;74.60;;;;;;4997169;28;20053;-78
2022/08/17 02:10:18;;;;;;;16.38;12.10;;;19.50;73.80;;;;;;4987422;28;20034;-79
2022/08/17 02:12:43;;;;;;;16.15;12.55;;;19.60;73.20;;;;;;4988354;28;20057;-78
2022/08/17 02:15:11;;;;;;;13.00;11.50;;;19.50;72.60;;;;;;4982226;28;20091;-77
2022/08/17 02:17:39;;;;;;;16.75;12.68;;;19.50;73.30;;;;;;5003033;28;20061;-80
2022/08/17 02:20:06;;;;;;;14.20;12.73;;;19.50;72.90;;;;;;5020417;28;20398;-77
2022/08/17 02:22:31;;;;;;;15.63;12.73;;;19.50;69.50;;;;;;5001871;28;20048;-77
2022/08/17 02:24:57;;;;;;;10.88;9.07;;;19.50;73.80;;;;;;4990140;28;20025;-77
2022/08/17 02:27:23;;;;;;;17.05;12.70;;;19.60;69.20;;;;;;5000805;28;20049;-78
2022/08/17 02:29:48;;;;;;;20.05;13.73;;;19.50;72.60;;;;;;5006680;28;20037;-77
2022/08/17 02:32:18;;;;;;;14.10;11.60;;;19.40;78.50;;;;;;4990059;28;20460;-77
2022/08/17 02:34:44;;;;;;;17.02;12.68;;;19.20;77.60;;;;;;4988977;28;20091;-77
2022/08/17 02:37:10;;;;;;;15.10;13.45;;;19.10;75.00;;;;;;4989556;28;20029;-80
2022/08/17 02:39:37;;;;;;;13.50;12.00;;;19.00;78.70;;;;;;5000748;28;20481;-77
2022/08/17 02:42:03;;;;;;;15.30;12.38;;;19.00;82.50;;;;;;4989821;28;20025;-77
2022/08/17 02:44:29;;;;;;;14.25;12.10;;;19.00;86.10;;;;;;5005271;28;20054;-77
2022/08/17 02:46:54;;;;;;;15.80;12.25;;;19.00;84.30;;;;;;5005826;28;20080;-77
2022/08/17 02:49:20;;;;;;;14.15;11.55;;;19.00;91.10;;;;;;4986332;28;20128;-77
2022/08/17 02:51:46;;;;;;;14.52;11.52;;;19.00;91.50;;;;;;4999766;28;20037;-77
2022/08/17 02:54:11;;;;;;;14.27;12.15;;;19.00;91.60;;;;;;4991568;28;20087;-77
2022/08/17 02:56:37;;;;;;;15.63;11.50;;;18.90;93.00;;;;;;5000988;28;20076;-80
2022/08/17 02:59:02;;;;;;;9.30;8.32;;;19.00;87.10;;;;;;4990753;28;20465;-79
2022/08/17 03:01:28;;;;;;;15.35;12.25;;;19.10;81.50;;;;;;5000524;28;20069;-79
2022/08/17 03:03:54;;;;;;;17.23;12.27;;;19.10;85.80;;;;;;5003040;28;20025;-82
2022/08/17 03:06:22;;;;;;;15.07;12.20;;;19.20;86.30;;;;;;5016025;28;20038;-79
2022/08/17 03:08:48;;;;;;;14.15;12.63;;;19.10;82.40;;;;;;4999938;28;20267;-82
2022/08/17 03:11:13;;;;;;;16.15;12.35;;;19.00;85.70;;;;;;4986631;28;20049;-80
2022/08/17 03:13:39;;;;;;;17.88;12.82;;;18.90;90.20;;;;;;5003354;28;20026;-79
2022/08/17 03:16:05;;;;;;;14.13;12.75;;;18.90;86.80;;;;;;5001626;28;20034;-80
2022/08/17 03:18:30;;;;;;;19.10;12.35;;;18.90;91.70;;;;;;4993282;28;20324;-79
2022/08/17 03:21:00;;;;;;;12.68;11.35;;;18.80;93.30;;;;;;4983860;28;20032;-80
2022/08/17 03:23:25;;;;;;;12.82;11.48;;;18.70;94.00;;;;;;5002136;28;20034;-79
2022/08/17 03:25:51;;;;;;;14.50;11.98;;;18.60;94.90;;;;;;4994057;28;20092;-80
2022/08/17 03:28:17;;;;;;;12.95;11.68;;;18.60;92.90;;;;;;5009907;28;20025;-79
2022/08/17 03:30:42;;;;;;;14.18;11.73;;;18.60;92.40;;;;;;4992146;28;20543;-79
2022/08/17 03:33:11;;;;;;;15.00;10.77;;;18.60;93.00;;;;;;4991357;28;20570;-80
2022/08/17 03:35:39;;;;;;;13.73;11.43;;;18.50;91.80;;;;;;4990686;28;20065;-80
2022/08/17 03:38:05;;;;;;;12.25;10.50;;;18.50;91.90;;;;;;5006826;28;20802;-81
2022/08/17 03:40:30;;;;;;;16.38;11.48;;;18.50;92.80;;;;;;4995367;28;20130;-81
2022/08/17 03:42:56;;;;;;;12.05;10.60;;;18.50;92.90;;;;;;4991965;28;20416;-81
2022/08/17 03:56:41;;;;;;;14.35;9.93;;;18.50;96.00;;;;;;5007729;28;20041;-81
2022/08/17 03:59:17;;;;;;;14.85;10.63;;;18.50;96.20;;;;;;4990554;28;20026;-80
2022/08/17 04:01:43;;;;;;;13.52;10.00;;;18.50;95.40;;;;;;4990851;28;20519;-80
2022/08/17 04:04:09;;;;;;;13.20;10.38;;;18.50;95.20;;;;;;4990997;28;20208;-80
2022/08/17 04:06:35;;;;;;;12.18;10.93;;;18.40;96.00;;;;;;5005241;28;20457;-79
2022/08/17 04:09:01;;;;;;;12.60;10.43;;;18.50;96.40;;;;;;4992635;28;20471;-79
2022/08/17 04:11:26;;;;;;;13.75;9.65;;;18.50;96.80;;;;;;5005298;28;20786;-78
2022/08/17 04:13:52;;;;;;;13.57;9.55;;;18.40;94.00;;;;;;4984928;28;20026;-78
2022/08/17 04:16:17;;;;;;;11.65;9.30;;;18.40;94.60;;;;;;5000486;28;20025;-79
2022/08/17 04:18:43;;;;;;;12.52;8.82;;;18.40;94.90;;;;;;4999092;28;20155;-78
2022/08/17 04:21:08;;;;;;;12.23;9.65;;;18.40;96.50;;;;;;5001887;28;20042;-81
2022/08/17 04:23:35;;;;;;;10.65;9.02;;;18.40;96.30;;;;;;5005042;28;20124;-81
2022/08/17 04:26:01;;;;;;;10.57;9.57;;;18.40;94.90;;;;;;5000989;28;20087;-78
2022/08/17 04:28:26;;;;;;;12.13;9.05;;;18.30;93.90;;;;;;4982894;28;20472;-81
2022/08/17 04:30:52;;;;;;;13.98;9.48;;;18.30;94.00;;;;;;4990413;28;20065;-81
2022/08/17 04:33:20;;;;;;;11.43;8.52;;;18.20;93.20;;;;;;4990776;28;20107;-81
2022/08/17 04:35:48;;;;;;;12.20;9.32;;;18.20;95.00;;;;;;4989138;28;20121;-81
2022/08/17 04:38:16;;;;;;;10.77;9.18;;;18.30;95.80;;;;;;4985449;28;20069;-79
2022/08/17 04:43:26;;;;;;;14.05;9.95;;;18.40;94.60;;;;;;5024577;28;20032;-80
2022/08/17 04:45:54;;;;;;;13.98;10.50;;;18.30;94.20;;;;;;5002838;28;20037;-80
2022/08/17 04:48:19;;;;;;;10.73;9.32;;;18.30;96.50;;;;;;4999197;28;20450;-80
2022/08/17 04:50:48;;;;;;;15.60;10.52;;;18.40;95.60;;;;;;5006278;28;20103;-80
2022/08/17 04:53:14;;;;;;;14.05;9.80;;;18.50;95.10;;;;;;5004079;28;20440;-80
2022/08/17 04:55:40;;;;;;;15.73;10.02;;;18.40;94.30;;;;;;5000624;28;20041;-80
2022/08/17 04:58:05;;;;;;;14.77;9.88;;;18.40;95.50;;;;;;4994140;28;20124;-80
2022/08/17 05:00:31;;;;;;;12.70;9.88;;;18.40;95.50;;;;;;5002019;28;20045;-80
2022/08/17 05:02:56;;;;;;;12.90;9.50;;;18.50;97.00;;;;;;4987896;28;20018;-81
2022/08/17 05:05:31;;;;;;;11.45;9.30;;;18.50;95.70;;;;;;4987086;28;20038;-81
2022/08/17 05:07:58;;;;;;;17.10;10.10;;;18.60;96.20;;;;;;4989185;28;20189;-80
2022/08/17 05:10:25;;;;;;;16.08;9.88;;;18.70;96.00;;;;;;5003317;28;20092;-80
2022/08/17 05:13:04;;;;;;;10.10;9.05;;;18.70;94.40;;;;;;4980732;28;20033;-80
2022/08/17 05:15:30;;;;;;;11.82;10.73;;;18.70;94.50;;;;;;4965598;28;20070;-80
2022/08/17 05:17:56;;;;;;;12.82;10.30;;;18.80;94.40;;;;;;4989120;28;20111;-80
2022/08/17 05:20:22;;;;;;;10.23;9.23;;;18.80;95.80;;;;;;5001486;28;20029;-80
2022/08/17 05:22:49;;;;;;;12.45;9.77;;;18.90;96.70;;;;;;4991771;28;20385;-80
2022/08/17 05:25:20;;;;;;;19.45;9.45;;;18.90;95.40;;;;;;5005351;28;20036;-80
2022/08/17 05:27:46;;;;;;;10.95;8.90;;;19.00;94.40;;;;;;5010187;28;20037;-80
2022/08/17 05:30:12;;;;;;;11.55;9.77;;;19.10;95.40;;;;;;5010261;28;20468;-80
2022/08/17 05:32:38;;;;;;;14.95;9.35;;;19.20;93.90;;;;;;4990106;28;20041;-80
2022/08/17 05:35:04;;;;;;;15.77;9.82;;;19.20;93.70;;;;;;5012122;28;20033;-80
2022/08/17 05:37:30;;;;;;;10.75;9.60;;;19.30;92.40;;;;;;4995863;28;20033;-82
2022/08/17 05:39:56;;;;;;;10.85;8.32;;;19.40;91.40;;;;;;5009846;28;20048;-81
2022/08/17 05:42:22;;;;;;;12.20;8.70;;;19.40;92.20;;;;;;5013876;28;20026;-82
2022/08/17 05:44:48;;;;;;;12.10;8.48;;;19.50;92.20;;;;;;5006539;28;20033;-81
2022/08/17 05:47:14;;;;;;;11.75;9.07;;;19.60;93.20;;;;;;5008659;28;20030;-81
2022/08/17 05:49:39;;;;;;;9.73;8.43;;;19.70;94.30;;;;;;5005571;28;20041;-80
2022/08/17 05:52:29;;;;;;;11.50;8.02;;;19.70;92.30;;;;;;5021186;28;20033;-80
2022/08/17 05:55:05;;;;;;;9.18;8.27;;;19.90;91.80;;;;;;5020349;28;20417;-80
2022/08/17 05:57:42;;;;;;;9.95;7.28;;;20.00;91.50;;;;;;5021389;28;20034;-80
2022/08/17 06:00:25;;;;;;;9.60;7.05;;;20.10;91.60;;;;;;5005617;28;20064;-80
2022/08/17 06:03:24;;;;;;;8.75;7.45;;;20.30;92.00;;;;;;5007696;28;20051;-81
2022/08/17 06:05:50;;;;;;;8.20;7.40;;;20.40;91.80;;;;;;5039020;28;20038;-80
2022/08/17 06:08:52;;;;;;;9.52;7.13;;;20.60;91.60;;;;;;5043273;28;20032;-80
2022/08/17 06:11:18;;;;;;;10.80;6.65;;;20.80;91.40;;;;;;4993860;28;20485;-80
2022/08/17 06:14:11;;;;;;;7.93;6.60;;;20.90;91.30;;;;;;5040660;28;20017;-81
2022/08/17 06:16:39;;;;;;;10.57;6.90;;;21.10;91.40;;;;;;5030630;28;20091;-81
2022/08/17 06:19:12;;;;;;;9.05;6.68;;;21.30;90.70;;;;;;5011672;28;20498;-81
2022/08/17 06:21:40;;;;;;;7.35;6.10;;;21.40;91.10;;;;;;5028382;28;20065;-81
2022/08/17 06:24:20;;;;;;;7.32;5.90;;;21.70;90.80;;;;;;5011542;28;20052;-81
2022/08/17 06:26:46;;;;;;;8.45;5.97;;;21.90;90.30;;;;;;5013051;28;20048;-81
2022/08/17 06:29:29;;;;;;;12.00;6.75;;;22.10;90.30;;;;;;5019944;28;20034;-80
2022/08/17 06:31:56;;;;;;;7.07;6.20;;;22.20;89.80;;;;;;5034392;28;20307;-80
2022/08/17 06:34:21;;;;;;;14.40;5.97;;;22.30;89.10;;;;;;5009274;28;20020;-80
2022/08/17 06:37:26;;;;;;;17.05;7.22;;;22.40;89.30;;;;;;5022810;28;20045;-81
2022/08/17 06:40:21;;;;;;;9.93;5.97;;;22.60;89.30;;;;;;4998662;28;20033;-80
2022/08/17 06:43:17;;;;;;;12.23;6.60;;;22.70;88.70;;;;;;5044031;28;20033;-81
2022/08/17 06:45:48;;;;;;;10.75;6.07;;;22.80;88.60;;;;;;5040403;28;20660;-81
2022/08/17 06:48:33;;;;;;;9.98;5.82;;;22.90;87.70;;;;;;5017212;28;20034;-80
2022/08/17 06:51:08;;;;;;;8.48;6.22;;;23.00;86.20;;;;;;5007980;28;20049;-81
2022/08/17 06:53:44;;;;;;;10.15;6.53;;;23.10;86.50;;;;;;5010763;28;20034;-80
2022/08/17 06:56:12;;;;;;;5.53;4.97;;;23.20;86.20;;;;;;5022278;28;20029;-80
2022/08/17 06:58:39;;;;;;;7.68;5.07;;;23.30;85.10;;;;;;5010237;28;20377;-80
2022/08/17 07:01:08;;;;;;;5.22;4.28;;;23.40;83.40;;;;;;5007813;28;20046;-81
2022/08/17 07:03:40;;;;;;;8.57;7.68;;;23.40;84.10;;;;;;5011660;28;20026;-81
2022/08/17 07:06:17;;;;;;;6.95;5.43;;;23.40;84.00;;;;;;4997983;28;20133;-81
2022/08/17 07:09:10;;;;;;;7.20;5.32;;;23.40;83.80;;;;;;5026582;28;20680;-81
2022/08/17 07:12:02;;;;;;;7.15;4.72;;;23.60;85.70;;;;;;5026002;28;20049;-81
2022/08/17 07:14:36;;;;;;;8.30;4.65;;;23.70;82.20;;;;;;5042361;28;20036;-81
2022/08/17 07:17:06;;;;;;;9.05;4.05;;;23.70;81.10;;;;;;5011388;28;20018;-81
2022/08/17 07:19:33;;;;;;;7.20;4.32;;;23.60;79.30;;;;;;5012307;28;20029;-81
2022/08/17 07:22:04;;;;;;;8.32;4.28;;;23.80;80.50;;;;;;5029827;28;20067;-81
2022/08/17 07:24:42;;;;;;;7.65;4.22;;;23.90;79.10;;;;;;5038691;28;20097;-81
2022/08/17 07:27:29;;;;;;;6.05;4.15;;;23.90;77.70;;;;;;5013395;28;20602;-82
2022/08/17 07:30:05;;;;;;;3.90;3.50;;;23.80;77.60;;;;;;5028462;28;20017;-81
2022/08/17 07:32:38;;;;;;;4.35;3.95;;;23.80;77.70;;;;;;5014027;28;20045;-82
2022/08/17 07:35:21;;;;;;;6.63;4.43;;;23.90;76.80;;;;;;5011332;28;20033;-81
2022/08/17 07:37:54;;;;;;;5.63;4.55;;;23.90;76.30;;;;;;5029297;28;20037;-81
2022/08/17 07:40:33;;;;;;;4.55;4.15;;;24.10;76.10;;;;;;5024308;28;20010;-81
2022/08/17 07:43:03;;;;;;;4.88;4.38;;;24.10;76.30;;;;;;5012112;28;20033;-81
2022/08/17 07:48:20;;;;;;;7.32;4.35;;;24.30;75.40;;;;;;5023743;28;20044;-82
2022/08/17 07:50:46;;;;;;;4.40;4.00;;;24.50;75.30;;;;;;5023224;28;20053;-82
2022/08/17 07:53:21;;;;;;;5.25;3.97;;;24.70;75.00;;;;;;5023776;28;20041;-82
2022/08/17 07:55:47;;;;;;;7.82;5.75;;;24.90;74.20;;;;;;5023473;28;20030;-82
2022/08/17 07:58:18;;;;;;;6.50;4.75;;;24.90;74.70;;;;;;5008061;28;20037;-82
2022/08/17 08:00:44;;;;;;;9.77;5.05;;;25.10;73.30;;;;;;5010722;28;20097;-83
2022/08/17 08:03:12;;;;;;;6.00;5.03;;;25.10;73.30;;;;;;5021162;28;20037;-82
2022/08/17 08:05:50;;;;;;;5.55;5.05;;;25.30;74.10;;;;;;5019843;28;20037;-82
2022/08/17 08:08:24;;;;;;;9.40;5.88;;;25.80;74.00;;;;;;5007335;28;20038;-83
2022/08/17 08:11:05;;;;;;;9.25;5.93;;;25.90;72.00;;;;;;5006297;28;20079;-83
2022/08/17 08:13:31;;;;;;;7.35;5.68;;;25.60;72.10;;;;;;5005703;28;20025;-84
2022/08/17 08:16:23;;;;;;;11.48;6.60;;;25.90;72.40;;;;;;5008196;28;20045;-84
2022/08/17 08:18:50;;;;;;;7.57;5.75;;;26.30;74.60;;;;;;5036981;28;20041;-83
2022/08/17 08:21:43;;;;;;;6.57;5.32;;;26.70;74.90;;;;;;5012300;28;20034;-84
2022/08/17 08:24:28;;;;;;;6.95;5.72;;;26.70;71.20;;;;;;5041208;28;20029;-84
2022/08/17 08:27:25;;;;;;;13.50;7.00;;;27.20;73.30;;;;;;5044797;28;20014;-84
2022/08/17 08:30:07;;;;;;;8.38;6.05;;;27.30;70.60;;;;;;5027425;28;20044;-84
2022/08/17 08:32:39;;;;;;;7.20;5.93;;;27.10;69.50;;;;;;5003756;28;20053;-84
2022/08/17 08:35:29;;;;;;;6.65;5.80;;;27.40;71.60;;;;;;5022721;28;20107;-88
2022/08/17 08:38:27;;;;;;;7.50;6.43;;;27.50;71.70;;;;;;4990376;28;20498;-87
2022/08/17 08:40:55;;;;;;;9.20;5.65;;;27.80;70.50;;;;;;5005550;28;20041;-87
2022/08/17 08:44:12;;;;;;;7.10;5.95;;;27.90;68.20;;;;;;5002002;28;20037;-87
2022/08/17 08:46:44;;;;;;;7.03;5.43;;;27.90;69.80;;;;;;4985285;28;20045;-88
2022/08/17 08:49:30;;;;;;;6.63;5.95;;;27.90;68.20;;;;;;4992757;28;20390;-87
2022/08/17 08:51:57;;;;;;;8.57;5.97;;;28.10;70.00;;;;;;5021218;28;20102;-87
2022/08/17 08:54:55;;;;;;;8.77;5.85;;;28.20;67.70;;;;;;4988972;28;20033;-87
2022/08/17 08:57:35;;;;;;;6.55;5.95;;;28.20;66.30;;;;;;5008614;28;20034;-87
2022/08/17 09:00:16;;;;;;;6.93;6.18;;;27.80;66.20;;;;;;5002531;28;20067;-86
2022/08/17 09:03:07;;;;;;;10.88;6.70;;;27.70;66.50;;;;;;4986569;28;20599;-86
2022/08/17 09:05:56;;;;;;;9.52;6.32;;;28.10;66.50;;;;;;5016334;28;20034;-85
2022/08/17 09:08:52;;;;;;;8.07;6.43;;;28.00;66.10;;;;;;5011155;28;20042;-85
2022/08/17 09:11:23;;;;;;;7.07;6.38;;;28.50;66.20;;;;;;5006380;28;20467;-85
2022/08/17 09:14:17;;;;;;;9.50;6.80;;;28.80;66.10;;;;;;5003760;28;20042;-86
2022/08/17 09:16:49;;;;;;;8.30;7.05;;;28.80;66.70;;;;;;5022893;28;20137;-86
2022/08/17 09:19:28;;;;;;;22.95;11.50;;;28.80;64.70;;;;;;5007868;28;20651;-86
2022/08/17 09:22:02;;;;;;;10.82;7.20;;;28.90;66.70;;;;;;4978776;28;20033;-86
2022/08/17 09:25:00;;;;;;;10.40;7.57;;;29.10;65.40;;;;;;4968040;28;20477;-86
2022/08/17 09:27:46;;;;;;;7.15;6.25;;;29.30;66.20;;;;;;4978539;28;20026;-87
2022/08/17 09:30:12;;;;;;;14.05;7.25;;;29.10;64.20;;;;;;4988648;28;20711;-87
2022/08/17 09:32:44;;;;;;;8.65;7.03;;;29.00;64.40;;;;;;5002290;28;20095;-85
2022/08/17 09:35:15;;;;;;;11.30;8.48;;;28.90;64.80;;;;;;4992513;28;20593;-86
2022/08/17 09:37:52;;;;;;;9.15;6.75;;;29.10;66.10;;;;;;4991190;28;20037;-87
2022/08/17 09:41:02;;;;;;;;;;;;;;;;;;;;;
2022/08/17 09:43:54;;;;;;;10.57;9.45;;;29.30;64.70;;;;;;5005470;28;21936;-89
2022/08/17 09:46:42;;;;;;;8.65;7.03;;;29.30;64.60;;;;;;4980583;28;20636;-87
2022/08/17 09:49:21;;;;;;;11.13;7.20;;;29.40;64.10;;;;;;4976635;28;20049;-87
2022/08/17 09:51:51;;;;;;;7.20;6.43;;;29.20;64.40;;;;;;5017197;28;20075;-86
2022/08/17 09:54:25;;;;;;;9.80;7.40;;;28.90;63.00;;;;;;4977848;28;20048;-87
2022/08/17 09:57:01;;;;;;;7.05;6.40;;;29.00;64.70;;;;;;4992969;28;20038;-88
2022/08/17 09:59:39;;;;;;;8.20;6.85;;;29.20;63.90;;;;;;4975615;28;20119;-89
2022/08/17 10:02:24;;;;;;;9.98;7.65;;;29.20;63.00;;;;;;5008209;28;20021;-87
2022/08/17 10:05:16;;;;;;;7.93;7.03;;;29.10;63.90;;;;;;4990456;28;20406;-85
2022/08/17 10:08:08;;;;;;;9.15;7.13;;;29.10;63.60;;;;;;5002910;28;20048;-85
2022/08/17 10:10:45;;;;;;;13.18;8.23;;;29.10;63.50;;;;;;5022297;28;20055;-84
2022/08/17 10:13:38;;;;;;;8.38;7.57;;;29.10;63.70;;;;;;4990669;28;20037;-85
2022/08/17 10:16:12;;;;;;;9.80;8.25;;;28.80;63.20;;;;;;5003009;28;20037;-84
2022/08/17 10:19:17;;;;;;;7.88;7.22;;;28.80;63.90;;;;;;4999313;28;20034;-86
2022/08/17 10:27:47;;;;;;;8.68;7.80;;;28.20;63.80;;;;;;5006964;28;20041;-89
2022/08/17 10:30:46;;;;;;;8.93;7.53;;;28.10;63.70;;;;;;4973567;28;20041;-87
2022/08/17 10:33:16;;;;;;;9.48;8.15;;;27.60;64.90;;;;;;5001560;28;20033;-87
2022/08/17 10:35:48;;;;;;;9.02;8.10;;;27.60;66.10;;;;;;4977136;28;20627;-87
2022/08/17 10:38:29;;;;;;;13.00;9.73;;;27.60;65.10;;;;;;4984547;28;20030;-86
2022/08/17 10:41:00;;;;;;;11.10;8.82;;;27.50;65.50;;;;;;4979605;28;20057;-85
2022/08/17 10:43:50;;;;;;;12.63;9.27;;;27.70;64.60;;;;;;4984830;28;20392;-87
2022/08/17 10:46:40;;;;;;;10.20;8.43;;;27.10;65.80;;;;;;4990466;28;20037;-86
2022/08/17 10:49:19;;;;;;;11.07;9.20;;;27.20;65.70;;;;;;5017490;28;20037;-86
2022/08/17 10:51:46;;;;;;;9.73;8.65;;;27.30;65.20;;;;;;5008984;28;20041;-85
2022/08/17 10:54:24;;;;;;;16.20;10.18;;;27.50;64.90;;;;;;4988229;28;20045;-86
2022/08/17 10:57:00;;;;;;;14.38;10.27;;;27.30;64.90;;;;;;5022006;28;20123;-86
2022/08/17 10:59:34;;;;;;;13.80;10.07;;;27.20;65.00;;;;;;4990190;28;20037;-86
2022/08/17 11:02:03;;;;;;;9.63;8.52;;;26.90;66.10;;;;;;5016260;28;20037;-85
2022/08/17 11:04:46;;;;;;;14.60;13.27;;;27.00;65.90;;;;;;5000512;28;20095;-85
2022/08/17 11:07:54;;;;;;;17.20;11.05;;;26.90;66.10;;;;;;4995015;28;20154;-85
2022/08/17 11:10:33;;;;;;;13.73;12.30;;;26.80;66.30;;;;;;4971638;28;20342;-86
2022/08/17 11:13:10;;;;;;;17.45;13.50;;;26.70;66.30;;;;;;5001586;28;20512;-85
2022/08/17 11:16:12;;;;;;;15.32;13.80;;;26.70;66.60;;;;;;4976649;28;20109;-85
2022/08/17 11:18:53;;;;;;;13.65;10.30;;;26.70;66.30;;;;;;4963086;28;20148;-85
2022/08/17 11:21:39;;;;;;;11.80;9.43;;;26.50;66.60;;;;;;5012790;28;20173;-85
2022/08/17 11:24:15;;;;;;;18.83;15.65;;;26.40;66.70;;;;;;5020055;28;20036;-86
2022/08/17 11:26:49;;;;;;;19.98;15.00;;;26.40;66.80;;;;;;4985696;28;20029;-87
2022/08/17 11:29:30;;;;;;;10.52;9.43;;;26.40;66.90;;;;;;4987025;28;20401;-88
2022/08/17 11:32:12;;;;;;;13.00;10.88;;;26.20;66.80;;;;;;4993180;28;20033;-88
2022/08/17 11:34:38;;;;;;;11.50;9.95;;;26.20;66.90;;;;;;4985620;28;20476;-87
2022/08/17 11:37:22;;;;;;;13.60;10.55;;;26.20;67.10;;;;;;4975537;28;20119;-86
2022/08/17 11:40:39;;;;;;;10.77;9.77;;;26.20;67.30;;;;;;4987769;28;20038;-87
2022/08/17 11:43:24;;;;;;;14.75;12.35;;;26.20;67.20;;;;;;4964853;28;20038;-87
2022/08/17 11:45:55;;;;;;;13.40;11.98;;;26.20;67.40;;;;;;4976783;28;20528;-87
2022/08/17 11:52:00;;;;;;;20.02;13.82;;;26.30;67.50;;;;;;5005239;28;20053;-86
2022/08/17 11:54:45;;;;;;;18.98;15.63;;;26.30;68.20;;;;;;5023399;28;20036;-86
2022/08/17 11:57:26;;;;;;;14.32;11.20;;;26.30;68.20;;;;;;5005968;28;20041;-86
2022/08/17 12:00:01;;;;;;;12.68;10.63;;;26.30;69.00;;;;;;5018176;28;20030;-87
2022/08/17 12:02:29;;;;;;;16.75;15.18;;;26.50;68.50;;;;;;4968080;28;20030;-86
2022/08/17 12:05:14;;;;;;;13.77;12.05;;;26.70;68.60;;;;;;5006797;28;20042;-86
2022/08/17 12:07:51;;;;;;;12.35;10.98;;;26.90;68.60;;;;;;4986718;28;20481;-87
2022/08/17 12:10:18;;;;;;;16.73;13.10;;;27.20;68.60;;;;;;4988457;28;20033;-87
2022/08/17 12:12:45;;;;;;;16.15;14.50;;;27.30;68.00;;;;;;4979291;28;20037;-87
2022/08/17 12:15:20;;;;;;;26.15;21.33;;;27.50;68.50;;;;;;4995433;28;20038;-86
2022/08/17 12:17:51;;;;;;;19.98;17.75;;;27.80;68.90;;;;;;5001609;28;20060;-87
2022/08/17 12:20:23;;;;;;;23.33;17.05;;;28.00;68.70;;;;;;5002993;28;20029;-86
2022/08/17 12:22:52;;;;;;;15.88;14.23;;;28.20;68.80;;;;;;5018923;28;20044;-86
2022/08/17 12:25:31;;;;;;;18.17;14.77;;;28.30;66.80;;;;;;5008939;28;20033;-87
2022/08/17 12:27:57;;;;;;;17.42;15.35;;;28.40;67.10;;;;;;4991684;28;20041;-86
2022/08/17 12:30:24;;;;;;;19.60;16.92;;;28.70;67.80;;;;;;4988097;28;20029;-85
2022/08/17 12:32:55;;;;;;;17.13;15.27;;;29.00;68.40;;;;;;5002999;28;20040;-86
2022/08/17 12:35:37;;;;;;;17.58;13.52;;;29.30;66.50;;;;;;4972293;28;20041;-86
2022/08/17 12:38:09;;;;;;;28.63;25.85;;;29.60;67.40;;;;;;4973096;28;20037;-86
2022/08/17 12:41:27;;;;;;;23.27;18.58;;;30.00;66.70;;;;;;4984690;28;20017;-88
2022/08/17 12:44:08;;;;;;;23.25;20.85;;;30.20;65.90;;;;;;5005875;28;20053;-86
2022/08/17 12:46:49;;;;;;;28.83;25.77;;;30.40;64.90;;;;;;5009582;28;20420;-85
2022/08/17 12:49:22;;;;;;;29.88;26.30;;;30.50;64.70;;;;;;5002286;28;20033;-86
2022/08/17 12:51:51;;;;;;;16.65;14.18;;;30.50;64.60;;;;;;4983356;28;20041;-87
2022/08/17 12:54:42;;;;;;;32.35;28.85;;;30.60;64.00;;;;;;4973351;28;20025;-88
2022/08/17 12:57:14;;;;;;;17.40;15.65;;;30.90;64.50;;;;;;5001672;28;20053;-87
2022/08/17 12:59:45;;;;;;;19.20;14.85;;;31.00;64.00;;;;;;4966728;28;20030;-88
2022/08/17 13:02:26;;;;;;;28.48;24.83;;;31.20;63.30;;;;;;4985243;28;20552;-87
2022/08/17 13:04:51;;;;;;;21.52;19.27;;;31.40;64.10;;;;;;5001044;28;20033;-87
2022/08/17 13:07:33;;;;;;;21.17;19.05;;;31.80;63.50;;;;;;4992382;28;20038;-90
2022/08/17 13:09:59;;;;;;;29.83;26.83;;;32.10;62.50;;;;;;4989761;28;20131;-89
2022/08/17 13:12:26;;;;;;;37.70;31.52;;;32.20;62.20;;;;;;4995774;28;20485;-89
2022/08/17 13:14:52;;;;;;;34.05;30.55;;;32.50;61.50;;;;;;4998303;28;20034;-88
2022/08/17 13:17:33;;;;;;;40.40;36.17;;;32.50;61.20;;;;;;4986284;28;20667;-89
2022/08/17 13:19:59;;;;;;;29.65;26.73;;;32.90;59.20;;;;;;4963582;28;20029;-89
2022/08/17 13:22:25;;;;;;;33.80;30.27;;;32.80;60.20;;;;;;4983116;28;20049;-85
2022/08/17 13:24:55;;;;;;;22.23;19.95;;;33.00;59.70;;;;;;4978013;28;20037;-87
2022/08/17 13:27:22;;;;;;;15.63;14.13;;;33.00;59.70;;;;;;4978593;28;20096;-89
2022/08/17 13:29:52;;;;;;;17.55;15.43;;;32.90;59.70;;;;;;4955063;28;20068;-87
2022/08/17 13:32:30;;;;;;;31.92;28.48;;;32.60;59.70;;;;;;4991081;28;20054;-88
2022/08/17 13:34:56;;;;;;;16.30;14.70;;;32.80;60.00;;;;;;5003203;28;20093;-88
2022/08/17 13:37:25;;;;;;;17.13;15.43;;;32.90;59.30;;;;;;5004051;28;20091;-84